Time;durP1;ratioP1;P1;durP2;ratioP2;P2;SDS_P1;SDS_P2;PMS_P1;PMS_P2;Temp;Humidity;BMP_temperature;BMP_pressure;BME280_temperature;BME280_humidity;BME280_pressure;Samples;Min_cycle;Max_cycle;Signal;HPM_P1;HPM_P2
2022/01/25 00:27:39;;;;;;;1.00;1.00;;;;;;;3.43;69.64;101739.58;104867;1297;109318;-84
2022/01/25 00:30:28;;;;;;;1.00;1.00;;;;;;;3.47;69.92;101738.11;104891;1297;99590;-85
2022/01/25 00:33:14;;;;;;;1.00;1.00;;;;;;;3.51;69.63;101737.49;104678;1299;139872;-85
2022/01/25 00:35:42;;;;;;;1.00;1.00;;;;;;;3.49;69.60;101736.23;104855;1297;95313;-86
2022/01/25 00:38:10;;;;;;;1.00;1.00;;;;;;;3.47;69.93;101735.27;104679;1297;138866;-85
2022/01/25 00:40:43;;;;;;;0.90;0.90;;;;;;;3.43;70.01;101732.39;104826;1297;107556;-85
2022/01/25 00:43:12;;;;;;;0.90;0.90;;;;;;;3.51;69.90;101728.02;104295;1297;139252;-87
2022/01/25 00:45:45;;;;;;;0.90;0.90;;;;;;;3.47;70.13;101727.21;104610;1297;108584;-84
2022/01/25 00:48:30;;;;;;;0.90;0.90;;;;;;;3.36;70.30;101724.66;104863;1297;94574;-84
2022/01/25 00:51:18;;;;;;;0.90;0.90;;;;;;;3.33;70.69;101716.33;104827;1297;137499;-85
2022/01/25 00:56:22;;;;;;;0.90;0.90;;;;;;;3.39;70.79;101718.23;104853;1297;139063;-84
2022/01/25 00:58:53;;;;;;;0.90;0.90;;;;;;;3.45;70.54;101717.51;104972;1297;108643;-87
2022/01/25 01:01:22;;;;;;;1.00;1.00;;;;;;;3.49;70.34;101719.54;104885;1296;138980;-85
2022/01/25 01:03:54;;;;;;;0.90;0.90;;;;;;;3.53;70.53;101720.84;104942;1297;93866;-85
2022/01/25 01:06:26;;;;;;;0.90;0.90;;;;;;;3.65;70.10;101713.23;104993;1297;109750;-85
2022/01/25 01:08:58;;;;;;;0.90;0.90;;;;;;;3.64;69.55;101706.55;104806;1297;138226;-87
2022/01/25 01:11:41;;;;;;;1.00;1.00;;;;;;;3.55;69.89;101707.20;104815;1297;108198;-85
2022/01/25 01:43:57;;;;;;;1.20;1.20;;;;;;;3.54;70.57;101680.48;104694;1294;139023;-88
2022/01/25 01:46:44;;;;;;;1.00;1.00;;;;;;;3.66;71.00;101676.36;104942;1297;107728;-85
2022/01/25 01:49:44;;;;;;;0.90;0.90;;;;;;;3.77;70.03;101666.44;104778;1296;137900;-85
2022/01/25 01:52:17;;;;;;;1.00;1.00;;;;;;;3.76;70.35;101660.97;104988;1297;108287;-84
2022/01/25 01:54:47;;;;;;;1.00;1.00;;;;;;;3.74;70.53;101654.94;104839;1297;95121;-85
2022/01/25 01:57:16;;;;;;;1.00;1.00;;;;;;;3.73;70.70;101650.36;104792;1297;138393;-85
2022/01/25 01:59:44;;;;;;;0.90;0.90;;;;;;;3.68;70.44;101654.13;104682;1297;110211;-85
2022/01/25 02:02:15;;;;;;;0.90;0.90;;;;;;;3.65;70.61;101657.74;104587;1297;138038;-85
2022/01/25 02:04:46;;;;;;;1.00;1.00;;;;;;;3.66;70.67;101651.26;104744;1297;109602;-84
2022/01/25 02:07:14;;;;;;;0.90;0.90;;;;;;;3.78;70.80;101644.68;104733;1299;95336;-84
2022/01/25 02:09:45;;;;;;;0.90;0.90;;;;;;;3.82;70.60;101648.80;104746;1297;139743;-85
2022/01/25 02:12:14;;;;;;;0.90;0.90;;;;;;;3.78;70.17;101648.89;104612;1299;107485;-85
2022/01/25 02:14:47;;;;;;;1.00;1.00;;;;;;;3.70;70.51;101649.40;104645;1298;137814;-84
2022/01/25 02:23:22;;;;;;;0.90;0.90;;;;;;;3.78;70.58;101639.58;104742;1297;95108;-86
2022/01/25 02:26:12;;;;;;;0.90;0.90;;;;;;;3.70;70.26;101635.90;104471;1299;137550;-86
2022/01/25 02:28:45;;;;;;;1.10;1.10;;;;;;;3.76;70.64;101636.37;104736;1297;98954;-84
2022/01/25 02:31:15;;;;;;;0.90;0.90;;;;;;;3.77;70.33;101630.59;104651;1299;106815;-85
2022/01/25 02:33:48;;;;;;;1.00;1.00;;;;;;;3.80;70.03;101630.15;104618;1299;138348;-84
2022/01/25 02:36:27;;;;;;;1.00;1.00;;;;;;;3.80;69.94;101620.99;104785;1297;94998;-84
2022/01/25 02:38:56;;;;;;;1.00;1.00;;;;;;;3.80;70.46;101619.06;104753;1297;137369;-89
2022/01/25 02:41:25;;;;;;;0.90;0.90;;;;;;;3.82;70.42;101610.51;104700;1297;99287;-85
2022/01/25 02:43:53;;;;;;;0.90;0.90;;;;;;;3.83;70.04;101606.31;104532;1298;138256;-84
2022/01/25 02:49:17;;;;;;;1.00;1.00;;;;;;;3.89;70.20;101612.77;104470;1297;94489;-84
2022/01/25 02:51:55;;;;;;;0.90;0.90;;;;;;;3.85;69.89;101610.74;104454;1297;138253;-85
2022/01/25 02:54:24;;;;;;;1.00;1.00;;;;;;;3.79;69.87;101606.39;104645;1299;98468;-85
2022/01/25 02:56:55;;;;;;;1.00;1.00;;;;;;;3.71;70.51;101610.11;104378;1299;138925;-84
2022/01/25 02:59:26;;;;;;;0.90;0.90;;;;;;;3.74;71.04;101608.05;104714;1297;95257;-84
2022/01/25 03:01:57;;;;;;;0.90;0.90;;;;;;;3.85;70.35;101612.86;104542;1297;138948;-84
2022/01/25 03:04:29;;;;;;;0.90;0.90;;;;;;;3.89;70.25;101616.27;104854;1297;107477;-84
2022/01/25 03:06:57;;;;;;;1.00;1.00;;;;;;;3.81;69.94;101608.21;104701;1299;100719;-84
2022/01/25 03:09:30;;;;;;;1.00;1.00;;;;;;;3.80;70.33;101600.09;104601;1296;139732;-84
2022/01/25 03:12:06;;;;;;;1.00;1.00;;;;;;;3.87;70.62;101600.77;104576;1297;95477;-87
2022/01/25 03:14:57;;;;;;;1.00;1.00;;;;;;;3.98;70.29;101604.49;104527;1297;137910;-84
2022/01/25 03:17:29;;;;;;;1.00;1.00;;;;;;;4.00;69.88;101600.33;104601;1297;107421;-83
2022/01/25 03:20:07;;;;;;;1.00;1.00;;;;;;;4.00;70.05;101591.36;104575;1299;138151;-84
2022/01/25 03:25:29;;;;;;;0.90;0.90;;;;;;;3.86;70.14;101578.97;104648;1298;95251;-85
2022/01/25 03:27:59;;;;;;;0.90;0.90;;;;;;;3.85;70.28;101568.05;104413;1299;137794;-84
2022/01/25 03:30:27;;;;;;;1.00;1.00;;;;;;;3.86;70.21;101560.34;104480;1297;197867;-86
2022/01/25 03:32:56;;;;;;;1.00;1.00;;;;;;;3.81;70.33;101567.27;104483;1299;139095;-84
2022/01/25 03:35:48;;;;;;;0.90;0.90;;;;;;;3.74;70.31;101567.13;104565;1298;106198;-84
2022/01/25 03:38:18;;;;;;;0.90;0.90;;;;;;;3.80;70.69;101556.53;104430;1299;137549;-85
2022/01/25 03:40:47;;;;;;;1.00;1.00;;;;;;;3.85;70.31;101555.77;104564;1298;95784;-84
2022/01/25 03:43:19;;;;;;;1.00;1.00;;;;;;;3.84;69.95;101550.46;104442;1299;109105;-84
2022/01/25 03:46:05;;;;;;;0.90;0.90;;;;;;;3.79;70.64;101555.64;104407;1298;138036;-84
2022/01/25 03:51:11;;;;;;;1.00;1.00;;;;;;;3.85;70.23;101555.21;104371;1299;137473;-84
2022/01/25 03:53:42;;;;;;;0.90;0.90;;;;;;;3.86;70.46;101557.89;104515;1298;94297;-84
2022/01/25 03:56:12;;;;;;;0.90;0.90;;;;;;;3.89;70.29;101560.05;104415;1298;138159;-84
2022/01/25 03:58:40;;;;;;;0.90;0.90;;;;;;;3.83;70.00;101558.53;104850;1297;99023;-84
2022/01/25 04:01:09;;;;;;;1.00;1.00;;;;;;;3.74;70.40;101546.56;104526;1297;106532;-84
2022/01/25 04:03:49;;;;;;;0.90;0.90;;;;;;;3.75;70.40;101548.52;104539;1297;137251;-83
2022/01/25 04:06:29;;;;;;;0.90;0.90;;;;;;;3.79;70.53;101541.24;104442;1299;94443;-85
2022/01/25 04:09:01;;;;;;;0.90;0.90;;;;;;;3.90;70.53;101540.73;104366;1297;137711;-84
2022/01/25 04:11:51;;;;;;;1.00;1.00;;;;;;;3.85;69.96;101537.66;104667;1297;99006;-85
2022/01/25 04:14:21;;;;;;;1.00;1.00;;;;;;;3.81;70.27;101538.65;104436;1299;139272;-84
2022/01/25 04:17:04;;;;;;;1.00;1.00;;;;;;;3.86;69.99;101530.46;104517;1299;95250;-84
2022/01/25 04:19:44;;;;;;;0.90;0.90;;;;;;;3.90;70.18;101531.61;104468;1298;94566;-85
2022/01/25 04:27:24;;;;;;;1.00;1.00;;;;;;;3.85;69.90;101504.98;104476;1297;139030;-84
2022/01/25 04:30:04;;;;;;;0.90;0.90;;;;;;;3.79;70.23;101497.15;104503;1299;95489;-84
2022/01/25 04:32:43;;;;;;;0.90;0.90;;;;;;;3.77;70.15;101491.98;104492;1297;137434;-84
2022/01/25 04:49:23;;;;;;;0.90;0.90;;;;;;;4.00;70.33;101488.05;104410;1299;108790;-86
2022/01/25 04:54:40;;;;;;;1.00;1.00;;;;;;;4.04;70.00;101477.20;104546;1298;106624;-86
2022/01/25 05:00:34;;;;;;;1.00;1.00;;;;;;;4.15;69.87;101476.36;104493;1297;95290;-84
2022/01/25 05:02:47;;;;;;;0.80;0.80;;;;;;;4.21;69.75;101468.90;104373;1296;138255;-85
2022/01/25 05:05:32;;;;;;;0.90;0.90;;;;;;;4.27;69.35;101461.97;104566;1299;99703;-84
2022/01/25 05:08:20;;;;;;;0.90;0.90;;;;;;;4.30;69.34;101462.38;104662;1296;106678;-84
2022/01/25 05:11:03;;;;;;;0.80;0.80;;;;;;;4.29;69.20;101472.55;104559;1297;138349;-84
2022/01/25 05:13:46;;;;;;;0.90;0.90;;;;;;;4.22;69.44;101474.17;104480;1297;94345;-84
2022/01/25 05:19:05;;;;;;;0.80;0.80;;;;;;;4.17;69.98;101463.55;104443;1297;99217;-84
2022/01/25 05:24:20;;;;;;;0.80;0.80;;;;;;;4.17;69.80;101471.13;104410;1297;95188;-84
2022/01/25 05:26:53;;;;;;;0.90;0.90;;;;;;;4.11;69.87;101469.25;104466;1297;137893;-84
2022/01/25 05:29:27;;;;;;;0.90;0.90;;;;;;;4.14;70.03;101465.43;104324;1297;110326;-84
2022/01/25 05:31:58;;;;;;;0.80;0.80;;;;;;;4.18;69.92;101460.06;104460;1297;97126;-84
2022/01/25 05:34:29;;;;;;;0.90;0.90;;;;;;;4.11;70.07;101452.02;104332;1297;138294;-85
2022/01/25 05:36:59;;;;;;;0.90;0.90;;;;;;;4.02;70.64;101456.80;104533;1297;95191;-85
2022/01/25 05:39:31;;;;;;;0.80;0.80;;;;;;;4.06;70.55;101450.73;104149;1297;138499;-85
2022/01/25 05:44:54;;;;;;;0.90;0.90;;;;;;;4.03;70.78;101452.77;104392;1297;137571;-86
2022/01/25 05:47:31;;;;;;;0.80;0.80;;;;;;;4.01;70.62;101452.38;104252;1299;105781;-86
2022/01/25 05:50:00;;;;;;;0.90;0.90;;;;;;;3.96;71.11;101460.73;104159;1297;95284;-84
2022/01/25 05:52:28;;;;;;;0.80;0.80;;;;;;;4.09;70.81;101457.79;104385;1296;138664;-84
2022/01/25 05:54:58;;;;;;;1.00;1.00;;;;;;;4.19;70.66;101457.78;104413;1297;109238;-83
2022/01/25 05:57:26;;;;;;;0.90;0.90;;;;;;;4.24;70.11;101460.52;104454;1297;137802;-84
2022/01/25 05:59:55;;;;;;;0.90;0.90;;;;;;;4.19;70.02;101456.55;104346;1297;109747;-84
2022/01/25 06:02:27;;;;;;;0.80;0.80;;;;;;;4.13;70.49;101452.77;104482;1297;95210;-85
2022/01/25 06:04:57;;;;;;;0.80;0.80;;;;;;;4.05;70.64;101450.88;104270;1297;138623;-82
2022/01/25 06:07:34;;;;;;;0.90;0.90;;;;;;;3.93;70.92;101451.36;104319;1296;109496;-83
2022/01/25 06:10:06;;;;;;;1.00;1.00;;;;;;;3.94;70.96;101455.96;104218;1297;138776;-84
2022/01/25 06:12:36;;;;;;;0.90;0.90;;;;;;;3.92;70.75;101456.98;104374;1299;108095;-84
2022/01/25 06:15:07;;;;;;;0.80;0.80;;;;;;;3.90;71.06;101449.73;104659;1297;139813;-85
2022/01/25 06:17:36;;;;;;;0.90;0.90;;;;;;;3.86;71.08;101450.54;104846;1297;94264;-86
2022/01/25 06:20:24;;;;;;;1.00;1.00;;;;;;;3.89;71.58;101457.62;104846;1298;108769;-86
2022/01/25 06:23:11;;;;;;;0.90;0.90;;;;;;;3.92;71.20;101450.81;104760;1296;140694;-85
2022/01/25 06:26:02;;;;;;;0.80;0.80;;;;;;;3.96;71.27;101446.85;105027;1297;109367;-86
2022/01/25 06:28:31;;;;;;;0.90;0.90;;;;;;;4.02;71.32;101442.20;104728;1297;138583;-87
2022/01/25 06:31:19;;;;;;;1.00;1.00;;;;;;;4.05;70.78;101439.09;104710;1298;95666;-87
2022/01/25 06:34:47;;;;;;;0.90;0.90;;;;;;;3.99;70.86;101437.95;104679;1297;137369;-88
2022/01/25 06:37:42;;;;;;;0.80;0.80;;;;;;;3.97;71.00;101428.77;104866;1297;100190;-85
2022/01/25 06:40:31;;;;;;;0.90;0.90;;;;;;;3.97;70.83;101430.00;104617;1296;138898;-87
2022/01/25 06:43:19;;;;;;;1.00;1.00;;;;;;;3.89;70.95;101429.33;104726;1299;95295;-85
2022/01/25 06:46:07;;;;;;;0.90;0.90;;;;;;;3.95;71.05;101427.15;104635;1296;140584;-86
2022/01/25 06:48:43;;;;;;;0.90;0.90;;;;;;;3.98;71.05;101426.14;104851;1297;110390;-84
2022/01/25 06:51:49;;;;;;;0.90;0.90;;;;;;;4.04;70.90;101412.55;104723;1297;138581;-86
2022/01/25 06:54:39;;;;;;;0.90;0.90;;;;;;;4.00;70.98;101410.54;104661;1299;108065;-88
2022/01/25 06:57:09;;;;;;;0.90;0.90;;;;;;;3.97;70.96;101404.88;104599;1299;139521;-85
2022/01/25 06:59:58;;;;;;;0.90;0.90;;;;;;;4.00;71.16;101407.91;104839;1298;95708;-86
2022/01/25 07:02:46;;;;;;;0.80;0.80;;;;;;;4.07;71.15;101416.29;104713;1297;139817;-87
2022/01/25 07:05:14;;;;;;;1.00;1.00;;;;;;;4.07;71.08;101420.69;104867;1297;98592;-86
2022/01/25 07:07:44;;;;;;;1.00;1.00;;;;;;;4.10;70.86;101421.10;104810;1297;108510;-87
2022/01/25 07:10:48;;;;;;;0.90;0.90;;;;;;;4.05;70.94;101413.97;104750;1297;139225;-86
2022/01/25 07:13:31;;;;;;;0.90;0.90;;;;;;;4.13;70.88;101422.02;104659;1299;95281;-85
2022/01/25 07:16:24;;;;;;;0.90;0.90;;;;;;;4.10;70.78;101418.29;104694;1297;138416;-87
2022/01/25 07:18:56;;;;;;;1.00;1.00;;;;;;;4.11;70.76;101420.22;104900;1297;98529;-85
2022/01/25 07:21:26;;;;;;;0.90;0.90;;;;;;;4.09;71.03;101425.48;104824;1297;139990;-86
2022/01/25 07:24:17;;;;;;;0.90;0.90;;;;;;;4.15;70.92;101421.70;104760;1300;94467;-85
2022/01/25 07:27:35;;;;;;;0.90;0.90;;;;;;;4.13;70.87;101417.98;104720;1297;137707;-86
2022/01/25 07:30:34;;;;;;;1.00;1.00;;;;;;;4.08;71.24;101422.99;104902;1297;108686;-86
2022/01/25 07:33:24;;;;;;;1.10;1.10;;;;;;;4.09;71.29;101418.60;104704;1298;138970;-85
2022/01/25 07:35:57;;;;;;;1.00;1.00;;;;;;;4.10;70.94;101415.11;104822;1299;109827;-86
2022/01/25 07:39:06;;;;;;;0.80;0.80;;;;;;;4.06;71.72;101409.77;104718;1297;139209;-87
2022/01/25 07:41:40;;;;;;;0.90;0.90;;;;;;;4.06;71.04;101407.65;104961;1299;93904;-89
2022/01/25 07:45:11;;;;;;;0.90;0.90;;;;;;;4.06;71.40;101407.14;104561;1298;138554;-86
2022/01/25 07:48:22;;;;;;;0.90;0.90;;;;;;;4.05;71.54;101410.80;104834;1298;96937;-87
2022/01/25 07:50:57;;;;;;;0.90;0.90;;;;;;;4.11;71.15;101408.44;104500;1299;139831;-87
2022/01/25 07:53:45;;;;;;;0.90;0.90;;;;;;;4.16;71.18;101407.46;104831;1297;95189;-90
2022/01/25 07:56:53;;;;;;;0.90;0.90;;;;;;;4.19;71.17;101396.63;104771;1298;138178;-87
2022/01/25 07:59:42;;;;;;;0.90;0.90;;;;;;;4.22;71.21;101391.75;104947;1298;108099;-85
2022/01/25 08:02:16;;;;;;;0.90;0.90;;;;;;;4.21;70.82;101385.06;104965;1299;98366;-85
2022/01/25 08:05:01;;;;;;;1.00;1.00;;;;;;;4.20;71.31;101382.94;104805;1299;138895;-86
2022/01/25 08:08:06;;;;;;;1.00;1.00;;;;;;;4.22;71.00;101389.46;104839;1297;95519;-86
2022/01/25 08:11:05;;;;;;;0.90;0.90;;;;;;;4.26;71.30;101387.25;104373;1299;139366;-86
2022/01/25 08:14:10;;;;;;;;;;;;;;;;;;;;;
2022/01/25 08:16:59;;;;;;;1.10;1.10;;;;;;;4.30;70.98;101385.71;104992;1296;138645;-86
2022/01/25 08:19:44;;;;;;;0.80;0.80;;;;;;;4.32;70.85;101387.68;104978;1295;106554;-87
2022/01/25 08:22:37;;;;;;;0.90;0.90;;;;;;;4.30;70.72;101383.27;104919;1296;138852;-87
2022/01/25 08:25:26;;;;;;;0.90;0.90;;;;;;;4.21;71.07;101388.03;104921;1298;94479;-86
2022/01/25 08:28:24;;;;;;;1.00;1.00;;;;;;;4.19;71.03;101377.30;104886;1297;137066;-86
2022/01/25 08:31:01;;;;;;;0.80;0.80;;;;;;;4.23;71.66;101372.79;105070;1296;97293;-88
2022/01/25 08:33:55;;;;;;;0.80;0.80;;;;;;;4.21;71.26;101369.93;104994;1297;137503;-86
2022/01/25 08:37:04;;;;;;;0.90;0.90;;;;;;;4.19;71.41;101364.81;105015;1296;95211;-86
2022/01/25 08:40:01;;;;;;;0.90;0.90;;;;;;;4.21;71.15;101364.48;104906;1297;138007;-86
2022/01/25 08:43:06;;;;;;;0.90;0.90;;;;;;;4.28;71.25;101368.99;104924;1297;110026;-88
2022/01/25 08:46:07;;;;;;;1.00;1.00;;;;;;;4.28;71.10;101371.27;104649;1296;138745;-87
2022/01/25 08:49:00;;;;;;;0.90;0.90;;;;;;;4.35;70.81;101366.98;104789;1299;109514;-86
2022/01/25 08:51:33;;;;;;;0.90;0.90;;;;;;;4.40;70.90;101363.53;104656;1299;137720;-85
2022/01/25 08:54:17;;;;;;;0.90;0.90;;;;;;;4.47;70.60;101357.83;104373;1303;94284;-86
2022/01/25 08:57:23;;;;;;;0.90;0.90;;;;;;;4.40;70.92;101357.73;104016;1308;139886;-85
2022/01/25 09:00:34;;;;;;;0.80;0.80;;;;;;;4.39;71.22;101355.09;103965;1308;98786;-86
2022/01/25 09:03:02;;;;;;;0.90;0.90;;;;;;;4.45;70.70;101358.52;103747;1311;138922;-86
2022/01/25 09:05:33;;;;;;;0.90;0.90;;;;;;;4.42;70.85;101349.50;104094;1309;95214;-86
2022/01/25 09:08:27;;;;;;;0.80;0.80;;;;;;;4.42;70.93;101344.21;104169;1309;95184;-85
2022/01/25 09:11:32;;;;;;;0.80;0.80;;;;;;;4.43;70.89;101346.17;103955;1309;109283;-87
2022/01/25 09:14:02;;;;;;;1.00;1.00;;;;;;;4.36;70.90;101339.74;103876;1309;98785;-88
2022/01/25 09:16:43;;;;;;;0.90;0.90;;;;;;;4.37;71.02;101335.36;103731;1308;138332;-89
2022/01/25 09:19:11;;;;;;;1.00;1.00;;;;;;;4.39;71.12;101333.45;103894;1308;95639;-85
2022/01/25 09:21:55;;;;;;;0.80;0.80;;;;;;;4.45;70.88;101330.38;103976;1309;137757;-85
2022/01/25 09:24:48;;;;;;;0.90;0.90;;;;;;;4.51;70.57;101333.09;104073;1305;108747;-88
2022/01/25 09:27:54;;;;;;;0.90;0.90;;;;;;;4.52;70.73;101335.05;104310;1303;138497;-86
2022/01/25 09:30:22;;;;;;;0.80;0.80;;;;;;;4.50;70.71;101332.73;104316;1304;109478;-86
2022/01/25 09:32:51;;;;;;;0.90;0.90;;;;;;;4.48;70.80;101333.06;104417;1303;95771;-88
2022/01/25 09:35:42;;;;;;;1.00;1.00;;;;;;;4.46;70.91;101333.39;104389;1299;139055;-85
2022/01/25 09:38:33;;;;;;;0.90;0.90;;;;;;;4.43;70.82;101333.70;104890;1297;109295;-87
2022/01/25 09:41:22;;;;;;;0.90;0.90;;;;;;;4.42;70.89;101334.04;104656;1299;138150;-88
2022/01/25 09:43:51;;;;;;;0.90;0.90;;;;;;;4.40;70.97;101336.80;104588;1299;108510;-88
2022/01/25 09:46:43;;;;;;;0.90;0.90;;;;;;;4.34;71.04;101336.91;104765;1297;139078;-85
2022/01/25 09:49:34;;;;;;;0.80;0.80;;;;;;;4.37;71.32;101337.64;104710;1300;94226;-88
2022/01/25 09:52:07;;;;;;;0.80;0.80;;;;;;;4.40;71.27;101342.97;104532;1299;139522;-88
2022/01/25 09:54:42;;;;;;;0.90;0.90;;;;;;;4.32;71.00;101346.02;104703;1299;100464;-86
2022/01/25 09:57:13;;;;;;;0.90;0.90;;;;;;;4.29;71.59;101340.17;104824;1300;107744;-86
2022/01/25 10:00:09;;;;;;;0.90;0.90;;;;;;;4.31;71.58;101343.20;104632;1297;139135;-86
2022/01/25 10:03:31;;;;;;;1.00;1.00;;;;;;;4.37;71.65;101340.98;104965;1297;95674;-86
2022/01/25 10:06:01;;;;;;;0.80;0.80;;;;;;;4.39;71.46;101335.75;104890;1297;137422;-88
2022/01/25 10:08:55;;;;;;;0.90;0.90;;;;;;;4.40;71.38;101338.21;104725;1299;97162;-86
2022/01/25 10:12:20;;;;;;;0.80;0.80;;;;;;;4.40;71.23;101325.05;104873;1296;138868;-86
2022/01/25 10:15:32;;;;;;;0.90;0.90;;;;;;;4.44;71.06;101324.92;104753;1297;95404;-88
2022/01/25 10:18:38;;;;;;;1.00;1.00;;;;;;;4.43;71.64;101319.63;104635;1297;139109;-85
2022/01/25 10:21:40;;;;;;;0.80;0.80;;;;;;;4.54;71.00;101322.59;104825;1299;107857;-85
2022/01/25 10:24:49;;;;;;;0.90;0.90;;;;;;;4.51;70.86;101327.11;104835;1297;99295;-88
2022/01/25 10:27:57;;;;;;;0.80;0.80;;;;;;;4.43;71.35;101321.39;104803;1297;107848;-89
2022/01/25 10:30:07;;;;;;;0.80;0.80;;;;;;;4.40;71.30;101317.65;104563;1299;139367;-88
2022/01/25 10:32:39;;;;;;;0.80;0.80;;;;;;;4.39;71.43;101314.13;104916;1297;93345;-88
2022/01/25 10:35:31;;;;;;;0.70;0.70;;;;;;;4.33;71.72;101307.89;104689;1297;138682;-87
2022/01/25 10:38:34;;;;;;;0.90;0.90;;;;;;;4.35;71.96;101314.24;104955;1297;97173;-88
2022/01/25 10:41:11;;;;;;;0.80;0.80;;;;;;;4.43;71.89;101317.15;104696;1297;138350;-87
2022/01/25 10:44:00;;;;;;;0.90;0.90;;;;;;;4.50;71.46;101321.30;104954;1297;94464;-88
2022/01/25 10:46:29;;;;;;;0.90;0.90;;;;;;;4.53;71.54;101321.34;104673;1297;138197;-88
2022/01/25 10:49:01;;;;;;;0.90;0.90;;;;;;;4.49;71.46;101321.11;104822;1297;109750;-87
2022/01/25 10:51:50;;;;;;;0.90;0.90;;;;;;;4.46;72.10;101320.72;104962;1297;97079;-85
2022/01/25 10:54:25;;;;;;;0.80;0.80;;;;;;;4.53;71.79;101316.94;104852;1297;138047;-85
2022/01/25 10:57:18;;;;;;;0.90;0.90;;;;;;;4.55;71.58;101313.10;104903;1297;94240;-88
2022/01/25 10:59:59;;;;;;;0.80;0.80;;;;;;;4.65;71.39;101310.76;104706;1297;137026;-89
2022/01/25 11:03:09;;;;;;;0.80;0.80;;;;;;;4.61;71.40;101308.59;104771;1299;108771;-87
2022/01/25 11:05:41;;;;;;;0.80;0.80;;;;;;;4.67;71.34;101303.25;104577;1300;138307;-87
2022/01/25 11:08:19;;;;;;;0.90;0.90;;;;;;;4.71;70.87;101312.43;104812;1299;106556;-88
2022/01/25 11:10:59;;;;;;;0.80;0.80;;;;;;;4.71;71.25;101311.55;104637;1299;138454;-85
2022/01/25 11:13:39;;;;;;;0.80;0.80;;;;;;;4.71;71.08;101307.33;104670;1297;93905;-87
2022/01/25 11:16:11;;;;;;;0.80;0.80;;;;;;;4.66;71.44;101308.67;104909;1300;106702;-85
2022/01/25 11:18:41;;;;;;;0.80;0.80;;;;;;;4.67;71.53;101304.47;104846;1297;138583;-87
2022/01/25 11:21:34;;;;;;;0.80;0.80;;;;;;;4.69;71.10;101291.63;104813;1297;106164;-86
2022/01/25 11:24:04;;;;;;;0.70;0.70;;;;;;;4.72;71.09;101300.48;104769;1297;139778;-86
2022/01/25 11:26:33;;;;;;;0.80;0.80;;;;;;;4.69;71.01;101301.16;104932;1298;94862;-86
2022/01/25 11:29:02;;;;;;;0.80;0.80;;;;;;;4.66;71.30;101298.65;104788;1297;139325;-85
2022/01/25 11:32:09;;;;;;;0.90;0.90;;;;;;;4.66;71.25;101296.19;104833;1298;98429;-86
2022/01/25 11:35:10;;;;;;;0.80;0.80;;;;;;;4.67;71.80;101291.44;104886;1300;139083;-85
2022/01/25 11:37:58;;;;;;;0.80;0.80;;;;;;;4.75;71.37;101287.83;104790;1299;96377;-86
2022/01/25 11:40:48;;;;;;;0.80;0.80;;;;;;;4.70;71.38;101282.16;104800;1297;139069;-86
2022/01/25 11:44:35;;;;;;;0.80;0.80;;;;;;;4.71;71.48;101287.98;105125;1297;108765;-86
2022/01/25 11:48:10;;;;;;;0.90;0.90;;;;;;;4.73;71.61;101285.89;104730;1297;137845;-88
2022/01/25 11:50:42;;;;;;;0.80;0.80;;;;;;;4.80;71.42;101280.52;104723;1299;108373;-86
2022/01/25 11:53:18;;;;;;;0.80;0.80;;;;;;;4.89;71.51;101278.67;104676;1297;139520;-86
2022/01/25 11:55:53;;;;;;;0.80;0.80;;;;;;;4.94;71.50;101273.45;104667;1299;94827;-86
2022/01/25 11:58:58;;;;;;;0.80;0.80;;;;;;;5.00;70.99;101269.48;104832;1297;137681;-86
2022/01/25 12:02:11;;;;;;;0.80;0.80;;;;;;;4.98;71.09;101272.62;104769;1299;100339;-86
2022/01/25 12:05:06;;;;;;;0.80;0.80;;;;;;;4.97;71.21;101275.95;104828;1297;139763;-85
2022/01/25 12:08:27;;;;;;;0.80;0.80;;;;;;;5.00;70.94;101273.89;104758;1299;95166;-86
2022/01/25 12:11:34;;;;;;;0.80;0.80;;;;;;;5.01;70.93;101275.64;104818;1297;138272;-88
2022/01/25 12:14:33;;;;;;;0.90;0.90;;;;;;;5.00;71.04;101273.70;104795;1297;109345;-86
2022/01/25 12:18:19;;;;;;;0.70;0.70;;;;;;;5.01;70.73;101271.77;104679;1297;138189;-85
2022/01/25 12:21:08;;;;;;;0.90;0.90;;;;;;;5.02;71.03;101272.85;104637;1298;108273;-86
2022/01/25 12:23:44;;;;;;;0.80;0.80;;;;;;;5.03;70.74;101274.27;104674;1299;138346;-87
2022/01/25 12:26:57;;;;;;;0.80;0.80;;;;;;;5.07;70.60;101268.31;104891;1299;94664;-87
2022/01/25 12:30:08;;;;;;;0.80;0.80;;;;;;;5.05;70.59;101267.58;104703;1298;139193;-89
2022/01/25 12:32:59;;;;;;;0.90;0.90;;;;;;;5.03;70.64;101260.00;104776;1299;98986;-88
2022/01/25 12:36:03;;;;;;;0.80;0.80;;;;;;;5.00;70.76;101256.10;104729;1298;138482;-87
2022/01/25 12:38:51;;;;;;;0.80;0.80;;;;;;;4.98;70.98;101250.96;104742;1297;95684;-89
2022/01/25 12:41:41;;;;;;;0.80;0.80;;;;;;;4.92;71.10;101248.63;104798;1299;138693;-86
2022/01/25 12:44:22;;;;;;;0.90;0.90;;;;;;;4.84;71.33;101249.24;104724;1297;110329;-86
2022/01/25 12:47:15;;;;;;;0.80;0.80;;;;;;;4.90;71.31;101245.09;104816;1296;139208;-86
2022/01/25 12:50:06;;;;;;;0.70;0.70;;;;;;;4.92;71.23;101244.92;104642;1297;108132;-86
2022/01/25 12:53:18;;;;;;;0.70;0.70;;;;;;;4.94;71.27;101245.65;104753;1297;138966;-86
2022/01/25 12:56:55;;;;;;;0.90;0.90;;;;;;;4.97;71.21;101242.16;104769;1299;93863;-86
2022/01/25 12:59:33;;;;;;;0.90;0.90;;;;;;;4.98;70.97;101240.77;104690;1299;138807;-85
2022/01/25 13:02:03;;;;;;;0.80;0.80;;;;;;;4.99;71.22;101240.09;104806;1299;98540;-87
2022/01/25 13:04:33;;;;;;;0.80;0.80;;;;;;;4.99;71.33;101239.36;104662;1300;137862;-86
2022/01/25 13:07:01;;;;;;;0.80;0.80;;;;;;;4.98;71.49;101240.41;105000;1298;95149;-86
2022/01/25 13:09:43;;;;;;;0.90;0.90;;;;;;;5.09;71.33;101239.13;105054;1297;95159;-86
2022/01/25 13:12:58;;;;;;;0.80;0.80;;;;;;;5.10;71.06;101236.14;104532;1299;139166;-89
2022/01/25 13:18:14;;;;;;;0.80;0.80;;;;;;;5.03;71.24;101231.15;104786;1297;141057;-86
2022/01/25 13:21:03;;;;;;;0.80;0.80;;;;;;;5.04;71.33;101230.79;104866;1300;95198;-87
2022/01/25 13:23:54;;;;;;;0.80;0.80;;;;;;;5.02;71.20;101233.95;104736;1297;139288;-90
2022/01/25 13:27:12;;;;;;;0.80;0.80;;;;;;;4.94;71.53;101238.61;104984;1297;108045;-87
2022/01/25 13:30:45;;;;;;;0.90;0.90;;;;;;;4.96;71.81;101238.64;104786;1297;138736;-88
2022/01/25 13:33:54;;;;;;;0.90;0.90;;;;;;;5.00;71.85;101237.63;104754;1298;106688;-90
2022/01/25 13:36:24;;;;;;;0.80;0.80;;;;;;;4.99;71.71;101237.97;104569;1298;139292;-88
2022/01/25 13:39:15;;;;;;;0.80;0.80;;;;;;;4.98;71.80;101233.73;104717;1299;95665;-88
2022/01/25 13:42:10;;;;;;;0.80;0.80;;;;;;;4.93;72.12;101230.16;104567;1297;137789;-88
2022/01/25 13:45:57;;;;;;;;;;;;;;;;;;;;;
2022/01/25 13:48:50;;;;;;;0.80;0.80;;;;;;;4.93;72.23;101227.69;104716;1298;137723;-87
2022/01/25 13:51:57;;;;;;;0.80;0.80;;;;;;;4.93;72.35;101220.66;104900;1297;95264;-87
2022/01/25 13:55:06;;;;;;;0.80;0.80;;;;;;;4.98;72.38;101219.99;104781;1299;137916;-87
2022/01/25 13:58:22;;;;;;;0.80;0.80;;;;;;;4.94;72.05;101219.09;104831;1297;107429;-88
2022/01/25 14:01:41;;;;;;;0.70;0.70;;;;;;;5.01;72.16;101225.31;104995;1297;97233;-87
2022/01/25 14:04:51;;;;;;;0.80;0.80;;;;;;;4.99;72.07;101223.01;104929;1296;108678;-88
2022/01/25 14:07:40;;;;;;;0.80;0.80;;;;;;;5.01;72.15;101229.72;104705;1297;137832;-88
2022/01/25 14:10:53;;;;;;;0.80;0.80;;;;;;;5.02;71.95;101228.84;104864;1297;94473;-85
2022/01/25 14:23:26;;;;;;;0.70;0.70;;;;;;;5.01;72.13;101228.30;104925;1297;96052;-88
2022/01/25 14:26:34;;;;;;;0.80;0.80;;;;;;;4.97;72.08;101228.08;104918;1297;94473;-89
2022/01/25 14:29:18;;;;;;;0.80;0.80;;;;;;;5.06;72.18;101221.83;104853;1299;108522;-86
2022/01/25 14:31:47;;;;;;;0.70;0.70;;;;;;;5.11;71.77;101221.71;104846;1297;138365;-87
2022/01/25 14:34:18;;;;;;;0.70;0.70;;;;;;;5.14;71.89;101221.04;105040;1297;108458;-86
2022/01/25 14:37:13;;;;;;;0.80;0.80;;;;;;;5.13;71.63;101228.60;104869;1297;138962;-86
2022/01/25 14:40:15;;;;;;;0.80;0.80;;;;;;;5.17;71.75;101227.59;105034;1297;94337;-88
2022/01/25 14:44:06;;;;;;;0.70;0.70;;;;;;;5.22;71.47;101223.73;104883;1297;140049;-86